createdAt,value
2017-08-16T00:00:31.024Z,5.13
2017-08-16T00:02:57.365Z,4.90
2017-08-16T00:05:23.758Z,4.63
2017-08-16T00:07:50.100Z,5.90
2017-08-16T00:10:16.546Z,5.07
2017-08-16T00:12:42.901Z,6.07
2017-08-16T00:15:09.592Z,5.17
2017-08-16T00:17:36.042Z,5.93
2017-08-16T00:20:02.431Z,6.20
2017-08-16T00:22:28.835Z,6.53
2017-08-16T00:24:55.228Z,6.43
2017-08-16T00:27:22.355Z,6.80
2017-08-16T00:29:48.756Z,6.33
2017-08-16T00:32:15.165Z,6.83
2017-08-16T00:34:41.541Z,5.73
2017-08-16T00:37:08.033Z,6.17
2017-08-16T00:39:34.423Z,5.13
2017-08-16T00:42:01.871Z,5.23
2017-08-16T00:44:28.329Z,5.13
2017-08-16T00:46:54.772Z,5.23
2017-08-16T00:49:21.231Z,5.10
2017-08-16T00:51:47.657Z,4.07
2017-08-16T00:54:21.074Z,3.00
2017-08-16T00:56:47.482Z,2.50
2017-08-16T00:59:13.929Z,2.43
2017-08-16T01:01:40.351Z,2.13
2017-08-16T01:04:06.846Z,2.00
2017-08-16T01:06:33.994Z,2.03
2017-08-16T01:09:01.168Z,1.73
2017-08-16T01:11:27.597Z,2.00
2017-08-16T01:13:54.061Z,2.00
2017-08-16T01:16:20.440Z,1.60
2017-08-16T01:18:46.814Z,1.93
2017-08-16T01:21:13.217Z,1.87
2017-08-16T01:23:39.742Z,1.63
2017-08-16T01:26:06.187Z,1.53
2017-08-16T01:28:32.893Z,1.80
2017-08-16T01:30:59.251Z,1.57
2017-08-16T01:33:25.735Z,1.20
2017-08-16T01:35:52.123Z,1.60
2017-08-16T01:38:18.498Z,1.70
2017-08-16T01:40:44.878Z,1.57
2017-08-16T01:43:11.235Z,1.60
2017-08-16T01:45:37.698Z,1.77
2017-08-16T01:48:04.890Z,1.90
2017-08-16T01:50:31.297Z,1.57
2017-08-16T01:52:57.705Z,2.07
2017-08-16T01:55:25.172Z,2.53
2017-08-16T01:57:52.285Z,2.00
2017-08-16T02:00:18.534Z,2.70
2017-08-16T02:02:44.899Z,2.90
2017-08-16T02:05:11.247Z,3.03
2017-08-16T02:07:37.602Z,2.60
2017-08-16T02:10:03.931Z,2.80
2017-08-16T02:12:30.301Z,2.70
2017-08-16T02:14:57.399Z,2.77
2017-08-16T02:17:23.898Z,2.90
2017-08-16T02:19:50.191Z,2.70
2017-08-16T02:22:17.204Z,2.43
2017-08-16T02:24:43.650Z,2.30
2017-08-16T02:27:10.003Z,3.60
2017-08-16T02:29:37.098Z,2.77
2017-08-16T02:32:03.474Z,2.80
2017-08-16T02:34:29.861Z,2.50
2017-08-16T02:36:56.259Z,2.40
2017-08-16T02:39:22.599Z,2.80
2017-08-16T02:41:48.964Z,2.23
2017-08-16T02:44:15.395Z,2.40
2017-08-16T02:46:41.786Z,2.93
2017-08-16T02:49:08.233Z,2.63
2017-08-16T02:51:34.645Z,2.50
2017-08-16T02:54:01.042Z,2.90
2017-08-16T02:56:27.676Z,3.60
2017-08-16T02:58:54.130Z,3.37
2017-08-16T03:01:21.253Z,2.60
2017-08-16T03:03:47.651Z,2.40
2017-08-16T03:06:14.120Z,2.83
2017-08-16T03:08:40.538Z,3.00
2017-08-16T03:11:06.982Z,3.30
2017-08-16T03:13:34.208Z,4.10
2017-08-16T03:16:00.576Z,3.37
2017-08-16T03:18:27.733Z,3.47
2017-08-16T03:20:54.152Z,2.90
2017-08-16T03:23:23.443Z,4.07
2017-08-16T03:25:50.639Z,3.53
2017-08-16T03:28:17.062Z,3.47
2017-08-16T03:30:43.529Z,2.60
2017-08-16T03:33:09.936Z,3.07
2017-08-16T03:35:36.364Z,4.40
2017-08-16T03:38:03.157Z,3.23
2017-08-16T03:40:29.573Z,4.00
2017-08-16T03:42:56.084Z,3.30
2017-08-16T03:45:22.492Z,3.33
2017-08-16T03:47:48.980Z,3.30
2017-08-16T03:50:15.432Z,3.53
2017-08-16T03:52:42.639Z,2.87
2017-08-16T03:55:09.086Z,2.87
2017-08-16T03:57:36.218Z,3.50
2017-08-16T04:00:02.672Z,3.70
2017-08-16T04:02:29.082Z,3.20
2017-08-16T04:04:55.843Z,2.90
2017-08-16T04:07:22.335Z,3.20
2017-08-16T04:09:48.751Z,3.37
2017-08-16T04:12:15.104Z,3.57
2017-08-16T04:14:41.534Z,3.30
2017-08-16T04:17:07.978Z,3.50
2017-08-16T04:19:34.397Z,3.43
2017-08-16T04:22:00.853Z,3.07
2017-08-16T04:24:27.254Z,3.77
2017-08-16T04:26:53.997Z,4.47
2017-08-16T04:29:21.755Z,4.43
2017-08-16T04:31:48.404Z,3.80
2017-08-16T04:34:14.849Z,4.17
2017-08-16T04:36:43.561Z,3.80
2017-08-16T04:39:10.153Z,4.33
2017-08-16T04:41:37.782Z,4.83
2017-08-16T04:44:05.972Z,5.60
2017-08-16T04:46:32.454Z,4.40
2017-08-16T04:49:00.284Z,4.20
2017-08-16T04:51:27.627Z,4.83
2017-08-16T04:53:54.041Z,5.20
2017-08-16T04:56:20.520Z,5.00
2017-08-16T04:58:47.013Z,4.63
2017-08-16T05:01:13.457Z,4.63
2017-08-16T05:03:39.885Z,4.70
2017-08-16T05:06:06.374Z,4.30
2017-08-16T05:08:32.808Z,4.63
2017-08-16T05:11:01.211Z,4.13
2017-08-16T05:13:28.719Z,4.73
2017-08-16T05:15:55.128Z,4.07
2017-08-16T05:18:21.541Z,4.27
2017-08-16T05:20:47.991Z,3.60
2017-08-16T05:23:15.764Z,3.67
2017-08-16T05:25:43.512Z,3.17
2017-08-16T05:28:09.954Z,4.17
2017-08-16T05:30:36.387Z,3.50
2017-08-16T05:33:03.254Z,3.23
2017-08-16T05:35:29.895Z,3.40
2017-08-16T05:37:58.250Z,4.13
2017-08-16T05:40:25.119Z,4.37
2017-08-16T05:42:54.184Z,3.57
2017-08-16T05:45:20.922Z,4.00
2017-08-16T05:47:48.742Z,3.23
2017-08-16T05:50:16.584Z,4.60
2017-08-16T05:52:43.050Z,3.70
2017-08-16T05:55:10.220Z,3.70
2017-08-16T05:57:38.212Z,3.43
2017-08-16T06:00:05.236Z,3.80
2017-08-16T06:02:32.843Z,3.93
2017-08-16T06:04:59.522Z,3.40
2017-08-16T06:07:25.912Z,5.23
2017-08-16T06:09:53.970Z,4.27
2017-08-16T06:12:20.533Z,6.63
2017-08-16T06:14:48.201Z,3.93
2017-08-16T06:17:16.678Z,3.53
2017-08-16T06:19:43.567Z,3.63
2017-08-16T06:22:11.378Z,4.10
2017-08-16T06:24:38.167Z,4.00
2017-08-16T06:27:06.641Z,4.00
2017-08-16T06:29:37.254Z,3.73
2017-08-16T06:32:05.116Z,3.97
2017-08-16T06:34:33.131Z,4.07
2017-08-16T06:37:00.598Z,4.20
2017-08-16T06:39:26.938Z,4.00
2017-08-16T06:41:53.285Z,3.60
2017-08-16T06:44:19.647Z,3.77
2017-08-16T06:46:46.630Z,3.57
2017-08-16T06:49:13.001Z,3.00
2017-08-16T06:51:39.358Z,4.10
2017-08-16T06:54:06.547Z,3.97
2017-08-16T06:56:32.911Z,3.30
2017-08-16T06:58:59.327Z,3.13
2017-08-16T07:01:25.724Z,3.40
2017-08-16T07:03:52.088Z,2.97
2017-08-16T07:06:18.497Z,2.90
2017-08-16T07:08:44.854Z,3.43
2017-08-16T07:11:11.192Z,3.20
2017-08-16T07:13:37.653Z,3.27
2017-08-16T07:16:04.805Z,2.57
2017-08-16T07:18:31.921Z,3.33
2017-08-16T07:20:58.264Z,3.53
2017-08-16T07:23:24.628Z,2.70
2017-08-16T07:25:50.996Z,2.50
2017-08-16T07:28:17.355Z,2.80
2017-08-16T07:30:43.780Z,2.87
2017-08-16T07:33:10.182Z,3.50
2017-08-16T07:35:36.528Z,4.07
2017-08-16T07:38:02.923Z,3.03
2017-08-16T07:40:29.366Z,3.17
2017-08-16T07:42:55.732Z,3.27
2017-08-16T07:45:22.201Z,3.50
2017-08-16T07:47:48.558Z,3.10
2017-08-16T07:50:15.068Z,3.40
2017-08-16T07:52:41.531Z,3.67
2017-08-16T07:55:08.233Z,3.53
2017-08-16T07:57:34.758Z,3.47
2017-08-16T08:00:02.090Z,3.27
2017-08-16T08:02:29.168Z,3.40
2017-08-16T08:04:55.538Z,3.13
2017-08-16T08:07:21.920Z,3.73
2017-08-16T08:09:48.294Z,2.93
2017-08-16T08:12:14.722Z,2.53
2017-08-16T08:14:41.171Z,2.00
2017-08-16T08:17:07.562Z,2.00
2017-08-16T08:19:33.967Z,1.87
2017-08-16T08:22:01.127Z,2.13
2017-08-16T08:24:27.483Z,2.43
2017-08-16T08:26:55.119Z,2.50
2017-08-16T08:29:21.658Z,2.40
2017-08-16T08:31:48.022Z,2.17
2017-08-16T08:34:14.370Z,2.57
2017-08-16T08:39:13.929Z,2.70
2017-08-16T08:41:40.551Z,2.30
2017-08-16T08:44:07.106Z,2.60
2017-08-16T08:46:33.571Z,2.40
2017-08-16T08:49:00.075Z,3.37
2017-08-16T08:51:26.524Z,2.37
2017-08-16T08:53:52.971Z,2.27
2017-08-16T08:56:19.366Z,2.40
2017-08-16T08:58:45.717Z,3.17
2017-08-16T09:01:12.518Z,2.40
2017-08-16T09:03:38.891Z,2.63
2017-08-16T09:06:05.256Z,2.40
2017-08-16T09:08:31.635Z,3.33
2017-08-16T09:10:57.993Z,3.50
2017-08-16T09:13:24.378Z,2.87
2017-08-16T09:15:50.762Z,3.03
2017-08-16T09:18:17.173Z,3.17
2017-08-16T09:20:43.561Z,3.00
2017-08-16T09:23:09.982Z,3.40
2017-08-16T09:25:37.102Z,2.87
2017-08-16T09:28:04.222Z,2.50
2017-08-16T09:30:31.375Z,2.83
2017-08-16T09:32:58.040Z,2.77
2017-08-16T09:35:25.272Z,2.70
2017-08-16T09:37:51.761Z,2.60
2017-08-16T09:40:18.143Z,2.90
2017-08-16T09:42:45.172Z,3.00
2017-08-16T09:45:11.813Z,3.53
2017-08-16T09:47:38.209Z,3.70
2017-08-16T09:50:04.630Z,3.03
2017-08-16T09:52:31.079Z,4.13
2017-08-16T09:54:57.781Z,4.40
2017-08-16T09:57:24.228Z,2.87
2017-08-16T09:59:50.609Z,2.80
2017-08-16T10:02:17.048Z,3.13
2017-08-16T10:04:43.446Z,2.53
2017-08-16T10:07:09.826Z,4.37
2017-08-16T10:09:36.991Z,3.70
2017-08-16T10:12:03.380Z,2.67
2017-08-16T10:14:29.745Z,2.80
2017-08-16T10:16:57.168Z,3.30
2017-08-16T10:19:23.579Z,3.73
2017-08-16T10:21:49.944Z,3.40
2017-08-16T10:24:16.347Z,4.00
2017-08-16T10:26:42.714Z,3.10
2017-08-16T10:29:09.288Z,3.77
2017-08-16T10:31:35.747Z,3.70
2017-08-16T10:34:02.126Z,2.90
2017-08-16T10:36:28.520Z,3.73
2017-08-16T10:38:54.949Z,3.37
2017-08-16T10:41:21.327Z,3.07
2017-08-16T10:43:47.731Z,3.10
2017-08-16T10:46:14.867Z,4.10
2017-08-16T10:48:41.333Z,3.37
2017-08-16T10:51:07.694Z,3.90
2017-08-16T10:53:34.080Z,4.30
2017-08-16T10:56:01.195Z,4.20
2017-08-16T10:58:35.271Z,3.40
2017-08-16T11:01:01.703Z,2.87
2017-08-16T11:03:28.147Z,3.23
2017-08-16T11:05:54.482Z,3.40
2017-08-16T11:08:20.889Z,3.00
2017-08-16T11:10:47.232Z,3.43
2017-08-16T11:13:13.659Z,3.03
2017-08-16T11:15:40.036Z,3.07
2017-08-16T11:18:06.366Z,2.93
2017-08-16T11:20:32.755Z,2.37
2017-08-16T11:22:59.165Z,2.90
2017-08-16T11:25:25.554Z,3.47
2017-08-16T11:27:52.705Z,2.97
2017-08-16T11:30:19.106Z,3.27
2017-08-16T11:32:45.506Z,3.17
2017-08-16T11:35:11.899Z,3.60
2017-08-16T11:37:38.278Z,3.07
2017-08-16T11:40:04.704Z,3.33
2017-08-16T11:42:31.401Z,3.10
2017-08-16T11:44:58.580Z,2.40
2017-08-16T11:47:25.000Z,2.60
2017-08-16T11:49:51.659Z,2.53
2017-08-16T11:52:18.845Z,2.30
2017-08-16T11:54:45.245Z,2.40
2017-08-16T11:57:11.691Z,2.70
2017-08-16T11:59:38.471Z,2.70
2017-08-16T12:02:05.563Z,2.43
2017-08-16T12:04:31.967Z,2.40
2017-08-16T12:06:58.451Z,2.53
2017-08-16T12:09:24.816Z,2.47
2017-08-16T12:11:53.105Z,2.60
2017-08-16T12:14:20.800Z,2.40
2017-08-16T12:16:48.862Z,2.37
2017-08-16T12:19:15.490Z,2.27
2017-08-16T12:21:41.869Z,3.00
2017-08-16T12:24:09.048Z,2.37
2017-08-16T12:26:36.498Z,2.63
2017-08-16T12:29:03.111Z,2.73
2017-08-16T12:31:29.521Z,3.20
2017-08-16T12:33:58.848Z,2.43
2017-08-16T12:36:26.318Z,2.90
2017-08-16T12:38:55.610Z,2.53
2017-08-16T12:41:22.843Z,2.60
2017-08-16T12:43:49.260Z,2.57
2017-08-16T12:46:16.397Z,2.50
2017-08-16T12:48:44.442Z,3.07
2017-08-16T12:51:11.995Z,2.50
2017-08-16T12:53:39.365Z,2.60
2017-08-16T12:56:06.955Z,2.67
2017-08-16T12:58:33.318Z,2.13
2017-08-16T13:00:59.729Z,2.60
2017-08-16T13:03:26.835Z,2.97
2017-08-16T13:05:53.261Z,2.73
2017-08-16T13:08:19.596Z,2.73
2017-08-16T13:10:46.410Z,3.30
2017-08-16T13:13:13.473Z,3.00
2017-08-16T13:15:39.939Z,2.77
2017-08-16T13:18:06.290Z,2.90
2017-08-16T13:20:33.427Z,3.17
2017-08-16T13:22:59.799Z,2.80
2017-08-16T13:25:26.144Z,2.70
2017-08-16T13:27:52.567Z,2.53
2017-08-16T13:30:18.938Z,2.87
2017-08-16T13:32:45.289Z,2.57
2017-08-16T13:38:13.364Z,2.40
2017-08-16T13:40:46.597Z,2.93
2017-08-16T13:43:12.969Z,2.87
2017-08-16T13:45:40.106Z,2.80
2017-08-16T13:48:06.432Z,2.50
2017-08-16T13:50:32.790Z,2.80
2017-08-16T13:52:59.967Z,2.97
2017-08-16T13:55:26.628Z,3.43
2017-08-16T13:57:52.977Z,2.93
2017-08-16T14:00:19.379Z,2.80
2017-08-16T14:02:45.724Z,2.90
2017-08-16T14:05:12.092Z,3.07
2017-08-16T14:07:38.496Z,2.30
2017-08-16T14:10:04.899Z,2.80
2017-08-16T14:12:31.250Z,3.00
2017-08-16T14:14:57.609Z,3.93
2017-08-16T14:17:24.320Z,3.20
2017-08-16T14:19:50.662Z,2.97
2017-08-16T14:22:17.045Z,2.50
2017-08-16T14:24:43.399Z,2.97
2017-08-16T14:27:09.768Z,2.57
2017-08-16T14:29:36.194Z,2.53
2017-08-16T14:32:02.627Z,3.40
2017-08-16T14:34:29.016Z,2.73
2017-08-16T14:36:55.404Z,3.07
2017-08-16T14:39:22.503Z,2.87
2017-08-16T14:41:48.848Z,2.90
2017-08-16T14:44:15.274Z,3.13
2017-08-16T14:46:41.672Z,2.83
2017-08-16T14:49:08.064Z,2.70
2017-08-16T14:51:34.465Z,2.67
2017-08-16T14:54:00.848Z,3.10
2017-08-16T14:56:27.227Z,3.33
2017-08-16T14:58:53.625Z,3.40
2017-08-16T15:01:19.997Z,4.00
2017-08-16T15:03:46.351Z,3.00
2017-08-16T15:06:13.544Z,3.20
2017-08-16T15:08:39.928Z,3.33
2017-08-16T15:11:06.292Z,3.40
2017-08-16T15:13:32.704Z,4.07
2017-08-16T15:15:59.069Z,3.67
2017-08-16T15:18:25.486Z,3.43
2017-08-16T15:20:52.831Z,2.90
2017-08-16T15:23:19.496Z,4.20
2017-08-16T15:25:45.877Z,3.40
2017-08-16T15:28:12.969Z,3.13
2017-08-16T15:30:39.382Z,3.50
2017-08-16T15:33:05.836Z,2.53
2017-08-16T15:35:32.374Z,3.10
2017-08-16T15:37:58.796Z,3.10
2017-08-16T15:40:25.577Z,3.40
2017-08-16T15:42:51.943Z,2.80
2017-08-16T15:45:18.323Z,3.07
2017-08-16T15:47:44.689Z,3.20
2017-08-16T15:50:11.071Z,3.90
2017-08-16T15:52:37.465Z,3.27
2017-08-16T15:55:03.800Z,3.00
2017-08-16T15:57:30.125Z,4.00
2017-08-16T15:59:56.460Z,3.37
2017-08-16T16:02:22.903Z,3.03
2017-08-16T16:04:49.251Z,2.80
2017-08-16T16:07:15.638Z,3.50
2017-08-16T16:09:42.132Z,2.77
2017-08-16T16:12:08.500Z,2.97
2017-08-16T16:14:34.861Z,2.60
2017-08-16T16:17:01.257Z,3.50
2017-08-16T16:19:27.618Z,2.90
2017-08-16T16:21:53.999Z,3.20
2017-08-16T16:24:20.369Z,3.90
2017-08-16T16:26:46.798Z,3.17
2017-08-16T16:29:13.146Z,2.83
2017-08-16T16:31:40.297Z,2.97
2017-08-16T16:34:06.669Z,3.20
2017-08-16T16:36:33.775Z,3.10
2017-08-16T16:39:00.160Z,3.10
2017-08-16T16:41:26.526Z,3.30
2017-08-16T16:43:52.926Z,3.20
2017-08-16T16:46:20.214Z,3.10
2017-08-16T16:48:46.955Z,2.83
2017-08-16T16:51:13.381Z,3.37
2017-08-16T16:53:39.754Z,2.87
2017-08-16T16:56:06.865Z,3.20
2017-08-16T16:58:33.249Z,3.10
2017-08-16T17:00:59.649Z,3.27
2017-08-16T17:03:26.246Z,3.30
2017-08-16T17:05:52.585Z,3.43
2017-08-16T17:08:18.986Z,3.50
2017-08-16T17:10:45.512Z,2.60
2017-08-16T17:13:11.900Z,3.53
2017-08-16T17:15:38.407Z,2.80
2017-08-16T17:18:04.916Z,2.90
2017-08-16T17:20:31.324Z,2.83
2017-08-16T17:22:58.546Z,3.57
2017-08-16T17:25:24.888Z,3.00
2017-08-16T17:27:51.315Z,3.17
2017-08-16T17:30:19.098Z,3.30
2017-08-16T17:32:45.799Z,3.20
2017-08-16T17:35:12.374Z,3.30
2017-08-16T17:37:38.780Z,3.50
2017-08-16T17:40:05.380Z,3.90
2017-08-16T17:42:31.769Z,4.30
2017-08-16T17:44:58.274Z,5.70
2017-08-16T17:47:24.893Z,4.30
2017-08-16T17:49:51.542Z,4.10
2017-08-16T17:52:18.166Z,3.97
2017-08-16T17:54:44.559Z,3.67
2017-08-16T17:57:11.041Z,4.33
2017-08-16T17:59:38.209Z,4.03
2017-08-16T18:02:06.228Z,4.03
2017-08-16T18:04:32.847Z,4.50
2017-08-16T18:06:59.314Z,4.60
2017-08-16T18:09:25.716Z,3.97
2017-08-16T18:11:52.116Z,3.93
2017-08-16T18:14:18.474Z,4.37
2017-08-16T18:16:44.809Z,3.90
2017-08-16T18:19:11.200Z,4.30
2017-08-16T18:21:39.216Z,4.00
2017-08-16T18:24:05.754Z,3.93
2017-08-16T18:26:32.262Z,4.30
2017-08-16T18:28:58.698Z,4.20
2017-08-16T18:31:25.074Z,5.97
2017-08-16T18:33:51.482Z,5.60
2017-08-16T18:36:17.862Z,5.00
2017-08-16T18:38:44.614Z,4.40
2017-08-16T18:41:11.054Z,4.70
2017-08-16T18:43:37.445Z,4.00
2017-08-16T18:46:04.542Z,3.90
2017-08-16T18:48:30.919Z,3.97
2017-08-16T18:50:58.075Z,4.60
2017-08-16T18:53:25.258Z,4.50
2017-08-16T18:55:52.010Z,4.10
2017-08-16T18:58:18.450Z,3.53
2017-08-16T19:00:44.833Z,4.17
2017-08-16T19:03:12.051Z,4.00
2017-08-16T19:05:38.451Z,4.40
2017-08-16T19:08:04.923Z,3.60
2017-08-16T19:10:31.350Z,4.10
2017-08-16T19:12:58.474Z,4.50
2017-08-16T19:15:24.882Z,4.47
2017-08-16T19:17:51.340Z,5.43
2017-08-16T19:20:17.756Z,4.80
2017-08-16T19:22:44.276Z,3.97
2017-08-16T19:25:10.718Z,4.30
2017-08-16T19:27:38.449Z,4.60
2017-08-16T19:30:04.927Z,4.10
2017-08-16T19:32:32.614Z,4.80
2017-08-16T19:34:59.231Z,5.23
2017-08-16T19:37:26.231Z,4.60
2017-08-16T19:39:53.978Z,4.63
2017-08-16T19:42:21.235Z,4.10
2017-08-16T19:44:48.346Z,4.37
2017-08-16T19:47:15.936Z,4.27
2017-08-16T19:49:42.932Z,4.57
2017-08-16T19:52:09.707Z,4.70
2017-08-16T19:54:37.490Z,4.80
2017-08-16T19:57:05.719Z,4.07
2017-08-16T19:59:32.721Z,5.17
2017-08-16T20:01:59.191Z,5.20
2017-08-16T20:04:25.940Z,5.00
2017-08-16T20:06:53.583Z,5.70
2017-08-16T20:09:20.175Z,4.90
2017-08-16T20:11:47.690Z,4.37
2017-08-16T20:14:14.538Z,5.73
2017-08-16T20:16:40.981Z,5.40
2017-08-16T20:19:07.387Z,5.60
2017-08-16T20:21:33.796Z,5.07
2017-08-16T20:24:00.231Z,5.57
2017-08-16T20:26:26.704Z,5.53
2017-08-16T20:28:54.975Z,4.73
2017-08-16T20:31:21.532Z,4.90
2017-08-16T20:33:48.022Z,4.87
2017-08-16T20:36:14.917Z,5.90
2017-08-16T20:38:41.662Z,5.27
2017-08-16T20:41:08.728Z,5.27
2017-08-16T20:43:36.435Z,5.20
2017-08-16T20:46:02.954Z,5.70
2017-08-16T20:48:29.397Z,5.87
2017-08-16T20:50:57.917Z,5.37
2017-08-16T20:53:25.609Z,5.37
2017-08-16T20:55:52.181Z,5.10
2017-08-16T20:58:18.601Z,5.00
2017-08-16T21:00:46.471Z,5.03
2017-08-16T21:03:13.378Z,5.50
2017-08-16T21:05:41.031Z,5.07
2017-08-16T21:08:07.693Z,5.30
2017-08-16T21:10:34.789Z,5.27
2017-08-16T21:13:01.721Z,4.97
2017-08-16T21:15:28.164Z,4.40
2017-08-16T21:17:55.805Z,5.13
2017-08-16T21:20:22.378Z,4.80
2017-08-16T21:22:48.785Z,4.70
2017-08-16T21:25:15.594Z,4.50
2017-08-16T21:27:42.699Z,4.70
2017-08-16T21:30:11.542Z,4.50
2017-08-16T21:32:40.000Z,4.37
2017-08-16T21:35:06.533Z,4.97
2017-08-16T21:37:33.108Z,4.37
2017-08-16T21:40:00.611Z,4.53
2017-08-16T21:42:27.103Z,4.50
2017-08-16T21:44:53.490Z,5.40
2017-08-16T21:47:20.191Z,4.90
2017-08-16T21:49:46.657Z,5.07
2017-08-16T21:52:13.236Z,4.67
2017-08-16T21:54:41.421Z,4.90
2017-08-16T21:57:09.108Z,4.93
2017-08-16T21:59:36.004Z,4.07
2017-08-16T22:02:03.396Z,5.57
2017-08-16T22:04:30.408Z,4.93
2017-08-16T22:06:56.822Z,4.40
2017-08-16T22:09:23.324Z,5.30
2017-08-16T22:11:50.581Z,4.83
2017-08-16T22:14:17.236Z,5.10
2017-08-16T22:16:44.996Z,4.20
2017-08-16T22:19:12.888Z,4.67
2017-08-16T22:21:40.245Z,5.50
2017-08-16T22:24:08.894Z,5.77
2017-08-16T22:26:36.300Z,5.10
2017-08-16T22:29:04.227Z,5.17
2017-08-16T22:31:30.767Z,5.40
2017-08-16T22:33:57.140Z,5.90
2017-08-16T22:36:23.463Z,5.63
2017-08-16T22:38:49.853Z,4.93
2017-08-16T22:41:16.370Z,5.27
2017-08-16T22:43:42.838Z,5.40
2017-08-16T22:46:09.220Z,5.00
2017-08-16T22:48:35.642Z,5.70
2017-08-16T22:51:02.039Z,5.47
2017-08-16T22:53:28.442Z,6.10
2017-08-16T22:55:54.803Z,5.57
2017-08-16T23:00:54.324Z,5.20
2017-08-16T23:03:20.801Z,5.07
2017-08-16T23:05:47.258Z,5.53
2017-08-16T23:08:13.621Z,4.97
2017-08-16T23:10:39.987Z,5.20
2017-08-16T23:13:06.347Z,6.60
2017-08-16T23:15:32.766Z,6.23
2017-08-16T23:17:59.132Z,7.23
2017-08-16T23:20:25.539Z,7.20
2017-08-16T23:22:51.899Z,6.57
2017-08-16T23:25:18.274Z,5.93
2017-08-16T23:27:45.438Z,6.40
2017-08-16T23:30:11.796Z,6.33
2017-08-16T23:32:38.131Z,5.50
2017-08-16T23:35:04.799Z,6.37
2017-08-16T23:37:31.177Z,5.70
2017-08-16T23:39:57.597Z,5.70
2017-08-16T23:42:23.980Z,6.17
2017-08-16T23:44:50.384Z,5.23
2017-08-16T23:47:16.695Z,6.40
2017-08-16T23:49:43.349Z,5.63
2017-08-16T23:52:09.717Z,5.40
2017-08-16T23:54:36.081Z,5.60
2017-08-16T23:57:02.421Z,5.40
2017-08-16T23:59:28.793Z,5.43
